Time;durP1;ratioP1;P1;durP2;ratioP2;P2;SDS_P1;SDS_P2;PMS_P1;PMS_P2;Temp;Humidity;BMP_temperature;BMP_pressure;BME280_temperature;BME280_humidity;BME280_pressure;Samples;Min_cycle;Max_cycle;Signal;HPM_P1;HPM_P2
2023/05/05 00:01:32;;;;;;;2.50;2.30;;;23.00;48.10;;;;;;5012936;28;20062;-60
2023/05/05 00:03:59;;;;;;;2.80;2.47;;;23.00;48.20;;;;;;4995705;28;20486;-60
2023/05/05 00:06:27;;;;;;;2.75;2.40;;;23.00;48.20;;;;;;4996407;28;20105;-60
2023/05/05 00:08:55;;;;;;;3.13;2.25;;;23.00;48.10;;;;;;4996047;28;20490;-60
2023/05/05 00:11:22;;;;;;;2.47;2.28;;;23.00;48.20;;;;;;4995623;28;20086;-60
2023/05/05 00:13:50;;;;;;;3.15;2.60;;;22.90;48.10;;;;;;4996242;28;20125;-60
2023/05/05 00:16:17;;;;;;;2.25;2.05;;;22.90;48.70;;;;;;4995392;28;20047;-60
2023/05/05 00:18:45;;;;;;;2.03;1.85;;;22.90;48.10;;;;;;4995212;28;20482;-60
2023/05/05 00:21:12;;;;;;;2.55;2.35;;;22.90;48.10;;;;;;4996740;28;20047;-59
2023/05/05 00:23:39;;;;;;;2.20;2.05;;;22.90;48.20;;;;;;4996215;28;20114;-60
2023/05/05 00:26:06;;;;;;;2.00;1.88;;;22.90;48.10;;;;;;4996242;28;20683;-60
2023/05/05 00:28:33;;;;;;;2.47;2.15;;;22.90;48.70;;;;;;4995876;28;20129;-60
2023/05/05 00:31:01;;;;;;;2.58;2.30;;;22.90;48.20;;;;;;4995138;28;20085;-60
2023/05/05 00:33:28;;;;;;;2.38;2.08;;;22.90;48.20;;;;;;4994986;28;20104;-60
2023/05/05 00:35:55;;;;;;;2.15;2.05;;;22.90;48.20;;;;;;4995918;28;20050;-60
2023/05/05 00:38:22;;;;;;;2.45;2.25;;;22.80;48.10;;;;;;4994619;28;20410;-60
2023/05/05 00:40:49;;;;;;;2.50;2.08;;;22.90;48.20;;;;;;4995464;28;20057;-60
2023/05/05 00:43:16;;;;;;;2.67;1.83;;;22.90;48.20;;;;;;4995597;28;20498;-59
2023/05/05 00:45:46;;;;;;;2.50;2.30;;;22.80;48.10;;;;;;4995490;28;20046;-60
2023/05/05 00:48:15;;;;;;;2.30;2.10;;;22.80;48.20;;;;;;4995704;28;20053;-59
2023/05/05 00:50:43;;;;;;;2.20;2.00;;;22.80;48.20;;;;;;4995918;28;20535;-60
2023/05/05 00:53:11;;;;;;;2.67;2.33;;;22.80;48.20;;;;;;4995355;28;20046;-60
2023/05/05 00:55:39;;;;;;;2.00;1.90;;;22.80;48.30;;;;;;4994996;28;20050;-60
2023/05/05 00:58:07;;;;;;;2.45;2.25;;;22.80;48.30;;;;;;5009584;28;20130;-57
2023/05/05 01:00:34;;;;;;;2.45;2.22;;;22.70;48.30;;;;;;5015061;28;20406;-57
2023/05/05 01:03:01;;;;;;;2.60;1.98;;;22.80;48.40;;;;;;5015188;28;20060;-57
2023/05/05 01:05:50;;;;;;;2.53;1.95;;;22.80;48.40;;;;;;5014262;28;20042;-58
2023/05/05 01:08:45;;;;;;;2.30;1.90;;;22.70;48.40;;;;;;5014437;28;20058;-57
2023/05/05 01:11:34;;;;;;;2.30;2.10;;;22.70;48.30;;;;;;5015102;28;20092;-58
2023/05/05 01:14:18;;;;;;;2.63;2.35;;;22.80;48.20;;;;;;5014687;28;20401;-58
2023/05/05 01:17:02;;;;;;;2.55;2.30;;;22.80;48.20;;;;;;5015152;28;20137;-58
2023/05/05 01:19:53;;;;;;;1.85;1.70;;;22.80;48.20;;;;;;5014418;28;20129;-58
2023/05/05 01:22:27;;;;;;;2.05;1.90;;;22.80;48.10;;;;;;5014072;28;20056;-58
2023/05/05 01:25:27;;;;;;;2.80;2.35;;;22.80;48.10;;;;;;5014599;28;20060;-58
2023/05/05 01:28:10;;;;;;;1.98;1.88;;;22.80;48.10;;;;;;5015265;28;20053;-57
2023/05/05 01:31:16;;;;;;;2.40;1.85;;;22.80;48.10;;;;;;5014014;28;20442;-58
2023/05/05 01:33:48;;;;;;;2.65;2.38;;;22.70;48.00;;;;;;5014794;28;20050;-58
2023/05/05 01:36:24;;;;;;;1.90;1.80;;;22.70;48.00;;;;;;5014602;28;20076;-58
2023/05/05 01:38:56;;;;;;;2.00;1.90;;;22.70;48.00;;;;;;5013894;28;20137;-58
2023/05/05 01:41:38;;;;;;;2.10;1.77;;;22.70;48.00;;;;;;5014070;28;20144;-58
2023/05/05 01:44:06;;;;;;;2.28;2.08;;;22.70;48.00;;;;;;5012730;28;20046;-57
2023/05/05 01:46:35;;;;;;;2.72;2.10;;;22.70;48.00;;;;;;5014495;28;20130;-58
2023/05/05 01:49:04;;;;;;;2.10;1.90;;;22.70;48.00;;;;;;5013879;28;20053;-58
2023/05/05 01:51:33;;;;;;;2.65;1.75;;;22.70;48.10;;;;;;5013644;28;20053;-58
2023/05/05 01:54:04;;;;;;;2.17;2.08;;;22.70;48.00;;;;;;5014590;28;20421;-58
2023/05/05 01:56:32;;;;;;;2.13;1.92;;;22.70;48.00;;;;;;5013880;28;20050;-59
2023/05/05 01:59:00;;;;;;;1.77;1.60;;;22.70;48.00;;;;;;5014268;28;20046;-58
2023/05/05 02:01:28;;;;;;;2.50;2.10;;;22.70;48.00;;;;;;5014345;28;20466;-58
2023/05/05 02:03:57;;;;;;;1.83;1.73;;;22.70;48.00;;;;;;5014276;28;20121;-58
2023/05/05 02:06:27;;;;;;;1.60;1.50;;;22.70;48.00;;;;;;5014223;28;20138;-58
2023/05/05 02:08:57;;;;;;;2.30;2.10;;;22.70;48.00;;;;;;5014284;28;20111;-58
2023/05/05 02:11:25;;;;;;;1.90;1.77;;;22.70;48.00;;;;;;5013221;28;20490;-58
2023/05/05 02:13:54;;;;;;;1.95;1.85;;;22.70;48.00;;;;;;5013443;28;20056;-57
2023/05/05 02:16:23;;;;;;;1.67;1.58;;;22.70;48.00;;;;;;5013806;28;20060;-58
2023/05/05 02:18:52;;;;;;;2.03;1.85;;;22.60;48.00;;;;;;5013966;28;20096;-59
2023/05/05 02:21:20;;;;;;;1.92;1.83;;;22.60;48.10;;;;;;5013381;28;20050;-57
2023/05/05 02:23:50;;;;;;;2.38;2.17;;;22.60;48.10;;;;;;5013826;28;20410;-58
2023/05/05 02:26:22;;;;;;;1.85;1.73;;;22.60;48.10;;;;;;5012989;28;20138;-58
2023/05/05 02:29:17;;;;;;;1.75;1.65;;;22.60;48.20;;;;;;5012926;28;20050;-58
2023/05/05 02:31:49;;;;;;;2.58;1.80;;;22.60;48.20;;;;;;5013762;28;20061;-57
2023/05/05 02:34:23;;;;;;;1.67;1.58;;;22.60;48.30;;;;;;5013339;28;20041;-58
2023/05/05 02:36:53;;;;;;;1.92;1.83;;;22.60;48.20;;;;;;5013702;28;20056;-58
2023/05/05 02:39:31;;;;;;;1.65;1.55;;;22.60;48.20;;;;;;5011275;28;20057;-58
2023/05/05 02:42:02;;;;;;;4.85;2.08;;;22.60;48.10;;;;;;4998401;28;20121;-58
2023/05/05 02:44:30;;;;;;;;;;;22.60;48.00;;;;;;4994152;28;20074;-58
2023/05/05 02:46:58;;;;;;;1.90;1.80;;;22.60;47.90;;;;;;4992688;28;19965;-58
2023/05/05 02:49:25;;;;;;;2.03;1.73;;;22.60;47.90;;;;;;4992585;28;20073;-58
2023/05/05 02:51:52;;;;;;;1.73;1.63;;;22.60;47.90;;;;;;4993308;28;20494;-58
2023/05/05 02:54:19;;;;;;;1.65;1.50;;;22.60;47.80;;;;;;4993715;28;20517;-57
2023/05/05 02:56:50;;;;;;;3.08;1.67;;;22.60;47.80;;;;;;4993821;28;20574;-58
2023/05/05 02:59:49;;;;;;;1.83;1.73;;;22.60;47.80;;;;;;4993482;28;20128;-58
2023/05/05 03:02:32;;;;;;;1.65;1.55;;;22.60;47.80;;;;;;4993074;28;20413;-58
2023/05/05 03:05:08;;;;;;;2.00;1.88;;;22.60;47.80;;;;;;5003404;28;20050;-58
2023/05/05 03:07:53;;;;;;;1.70;1.60;;;22.60;47.80;;;;;;5012851;28;20057;-57
2023/05/05 03:10:29;;;;;;;1.85;1.73;;;22.50;47.70;;;;;;5013222;28;20077;-58
2023/05/05 03:13:00;;;;;;;2.60;1.50;;;22.60;47.70;;;;;;5013201;28;20082;-58
2023/05/05 03:15:42;;;;;;;1.60;1.50;;;22.60;47.70;;;;;;5012626;28;20576;-58
2023/05/05 03:18:10;;;;;;;1.80;1.70;;;22.60;47.60;;;;;;5012882;28;20136;-58
2023/05/05 03:20:39;;;;;;;2.33;1.73;;;22.50;47.60;;;;;;5013227;28;20049;-58
2023/05/05 03:23:07;;;;;;;2.03;1.92;;;22.50;47.60;;;;;;5013162;28;20054;-58
2023/05/05 03:25:42;;;;;;;1.63;1.52;;;22.50;47.60;;;;;;5013059;28;20046;-58
2023/05/05 03:28:09;;;;;;;2.10;1.90;;;22.50;47.50;;;;;;5012451;28;20054;-57
2023/05/05 03:30:36;;;;;;;1.48;1.38;;;22.50;47.50;;;;;;5012429;28;20073;-58
2023/05/05 03:33:03;;;;;;;1.67;1.58;;;22.50;47.40;;;;;;5011879;28;20048;-58
2023/05/05 03:35:31;;;;;;;1.65;1.55;;;22.50;47.40;;;;;;5012475;28;20453;-58
2023/05/05 03:37:58;;;;;;;1.50;1.40;;;22.60;47.40;;;;;;5027024;28;20521;-58
2023/05/05 03:40:25;;;;;;;1.73;1.63;;;22.50;47.30;;;;;;5012430;28;20078;-58
2023/05/05 03:43:06;;;;;;;1.73;1.60;;;22.50;47.40;;;;;;5012847;28;19949;-58
2023/05/05 03:45:33;;;;;;;2.90;1.75;;;22.50;47.40;;;;;;5012855;28;20046;-58
2023/05/05 03:48:01;;;;;;;1.80;1.65;;;22.50;47.40;;;;;;5012755;28;20054;-58
2023/05/05 03:50:28;;;;;;;1.60;1.50;;;22.50;47.40;;;;;;5011203;28;20465;-58
2023/05/05 03:52:55;;;;;;;1.50;1.45;;;22.50;47.40;;;;;;5012966;28;20417;-58
2023/05/05 03:55:23;;;;;;;1.83;1.70;;;22.50;47.40;;;;;;5012243;28;20045;-58
2023/05/05 03:57:50;;;;;;;3.45;1.60;;;22.50;47.50;;;;;;5012779;28;20141;-58
2023/05/05 04:00:18;;;;;;;1.55;1.45;;;22.50;47.40;;;;;;5012214;28;20137;-57
2023/05/05 04:02:45;;;;;;;1.60;1.27;;;22.50;47.40;;;;;;5011884;28;20046;-58
2023/05/05 04:05:12;;;;;;;1.25;1.20;;;22.50;47.30;;;;;;5010283;28;20124;-58
2023/05/05 04:07:39;;;;;;;1.70;1.60;;;22.60;47.30;;;;;;5010681;28;20060;-58
2023/05/05 04:10:07;;;;;;;1.77;1.67;;;22.60;47.20;;;;;;5011344;28;20049;-58
2023/05/05 04:12:34;;;;;;;2.40;1.63;;;22.60;47.00;;;;;;5011433;28;20104;-58
2023/05/05 04:15:02;;;;;;;1.50;1.40;;;22.60;47.00;;;;;;5014416;28;20124;-58
2023/05/05 04:17:29;;;;;;;1.60;1.50;;;22.70;47.00;;;;;;5015184;28;20052;-57
2023/05/05 04:19:56;;;;;;;1.77;1.67;;;22.70;46.90;;;;;;5014445;28;20164;-58
2023/05/05 04:22:23;;;;;;;1.80;1.70;;;22.70;46.80;;;;;;5015366;28;20093;-58
2023/05/05 04:24:50;;;;;;;2.08;1.85;;;22.70;46.80;;;;;;5014990;28;20045;-58
2023/05/05 04:27:17;;;;;;;4.22;1.60;;;22.70;46.70;;;;;;5014974;28;20060;-58
2023/05/05 04:29:45;;;;;;;2.22;2.03;;;22.70;46.60;;;;;;5014129;28;20403;-58
2023/05/05 04:32:12;;;;;;;1.80;1.70;;;22.70;46.60;;;;;;5015215;28;20064;-58
2023/05/05 04:34:39;;;;;;;2.05;1.95;;;22.70;46.50;;;;;;5012388;28;20049;-58
2023/05/05 04:37:06;;;;;;;1.55;1.45;;;22.80;46.40;;;;;;5014242;28;20049;-58
2023/05/05 04:39:33;;;;;;;2.00;1.70;;;22.70;46.20;;;;;;5013643;28;20050;-58
2023/05/05 04:42:01;;;;;;;2.58;1.60;;;22.80;46.10;;;;;;5012856;28;20052;-58
2023/05/05 04:44:28;;;;;;;1.60;1.52;;;22.80;46.10;;;;;;5012631;28;20056;-60
2023/05/05 04:46:55;;;;;;;1.92;1.83;;;22.80;46.10;;;;;;5011492;28;20048;-60
2023/05/05 04:49:22;;;;;;;1.73;1.63;;;22.80;46.00;;;;;;5013638;28;20081;-57
2023/05/05 04:51:49;;;;;;;1.33;1.23;;;22.80;46.00;;;;;;5014285;28;20585;-58
2023/05/05 04:54:16;;;;;;;1.65;1.55;;;22.80;46.00;;;;;;5011417;28;20141;-57
2023/05/05 04:56:43;;;;;;;1.98;1.77;;;22.80;46.00;;;;;;5012390;28;20056;-58
2023/05/05 04:59:10;;;;;;;2.45;1.25;;;22.80;45.90;;;;;;5012531;28;20070;-57
2023/05/05 05:01:37;;;;;;;3.53;1.90;;;22.80;45.80;;;;;;5012285;28;20048;-58
2023/05/05 05:04:04;;;;;;;1.35;1.25;;;22.90;45.80;;;;;;5010480;28;20080;-58
2023/05/05 05:06:32;;;;;;;1.75;1.65;;;22.90;45.70;;;;;;5012674;28;20046;-58
2023/05/05 05:08:59;;;;;;;1.85;1.75;;;22.90;45.70;;;;;;5013083;28;20046;-58
2023/05/05 05:11:27;;;;;;;1.52;1.42;;;22.90;45.70;;;;;;5014508;28;20049;-58
2023/05/05 05:13:55;;;;;;;1.77;1.67;;;22.90;45.70;;;;;;5013955;28;20096;-58
2023/05/05 05:16:24;;;;;;;1.75;1.60;;;22.90;45.60;;;;;;5012639;28;20050;-58
2023/05/05 05:18:51;;;;;;;1.50;1.40;;;22.90;45.60;;;;;;5002334;28;20133;-57
2023/05/05 05:21:18;;;;;;;2.17;2.03;;;22.90;45.50;;;;;;5008184;28;20050;-60
2023/05/05 05:23:46;;;;;;;1.73;1.63;;;22.90;45.40;;;;;;5001118;28;20265;-58
2023/05/05 05:26:13;;;;;;;3.33;1.90;;;23.00;45.50;;;;;;4997330;28;20155;-57
2023/05/05 05:28:40;;;;;;;1.80;1.70;;;23.00;45.40;;;;;;4993362;28;20050;-58
2023/05/05 05:31:07;;;;;;;2.13;1.92;;;23.00;45.30;;;;;;5002191;28;20053;-58
2023/05/05 05:33:35;;;;;;;2.42;2.22;;;23.00;45.30;;;;;;5003101;28;20064;-58
2023/05/05 05:36:02;;;;;;;3.00;2.50;;;23.10;45.30;;;;;;5003559;28;20129;-59
2023/05/05 05:38:29;;;;;;;2.38;2.17;;;23.10;45.20;;;;;;5008382;28;20136;-58
2023/05/05 05:40:56;;;;;;;2.50;2.10;;;23.10;45.10;;;;;;5006577;28;20053;-59
2023/05/05 05:43:24;;;;;;;2.17;2.03;;;23.10;45.10;;;;;;4998643;28;20046;-58
2023/05/05 05:45:52;;;;;;;6.22;2.83;;;23.10;45.00;;;;;;5002148;28;20516;-59
2023/05/05 05:48:20;;;;;;;2.67;2.28;;;23.10;45.00;;;;;;4997506;28;20057;-58
2023/05/05 05:50:49;;;;;;;4.03;2.85;;;23.20;45.00;;;;;;4996799;28;20049;-59
2023/05/05 05:53:16;;;;;;;3.60;2.65;;;23.20;44.90;;;;;;5001029;28;20475;-60
2023/05/05 05:55:45;;;;;;;3.28;2.70;;;23.20;44.90;;;;;;4993067;28;20058;-60
2023/05/05 05:58:12;;;;;;;2.60;2.38;;;23.30;44.90;;;;;;5002245;28;20053;-59
2023/05/05 06:00:40;;;;;;;3.42;2.88;;;23.30;44.80;;;;;;4995948;28;20054;-59
2023/05/05 06:03:07;;;;;;;2.85;2.55;;;23.30;44.80;;;;;;4997014;28;20112;-59
2023/05/05 06:05:35;;;;;;;3.33;2.47;;;23.30;44.80;;;;;;5003202;28;20514;-59
2023/05/05 06:08:02;;;;;;;2.38;2.17;;;23.30;44.80;;;;;;4995988;28;20168;-59
2023/05/05 06:10:29;;;;;;;4.80;2.95;;;23.30;44.80;;;;;;4996369;28;20053;-58
2023/05/05 06:12:57;;;;;;;2.90;2.30;;;23.30;44.90;;;;;;4999256;28;20088;-58
2023/05/05 06:15:24;;;;;;;3.10;2.80;;;23.40;45.10;;;;;;4995526;28;20105;-58
2023/05/05 06:17:51;;;;;;;9.02;2.42;;;23.40;45.20;;;;;;4999157;28;20122;-59
2023/05/05 06:20:19;;;;;;;4.97;2.38;;;23.40;45.20;;;;;;4999684;28;20525;-59
2023/05/05 06:22:47;;;;;;;2.80;2.53;;;23.40;45.30;;;;;;4999278;28;20045;-58
2023/05/05 06:25:14;;;;;;;5.90;2.28;;;23.50;45.50;;;;;;5000924;28;20041;-58
2023/05/05 06:27:41;;;;;;;2.75;2.40;;;23.50;45.50;;;;;;5001081;28;20057;-57
2023/05/05 06:30:09;;;;;;;3.35;2.17;;;23.50;45.50;;;;;;5001344;28;20562;-58
2023/05/05 06:32:37;;;;;;;3.08;2.78;;;23.60;45.60;;;;;;4997869;28;20042;-58
2023/05/05 06:35:05;;;;;;;6.90;2.40;;;23.60;45.60;;;;;;5002702;28;20406;-58
2023/05/05 06:37:32;;;;;;;3.55;2.50;;;23.70;45.60;;;;;;5000247;28;20403;-58
2023/05/05 06:39:59;;;;;;;4.47;3.05;;;23.70;45.50;;;;;;5001196;28;20046;-58
2023/05/05 06:42:26;;;;;;;5.93;2.78;;;23.70;45.30;;;;;;4998526;28;20057;-58
2023/05/05 06:44:54;;;;;;;3.47;2.80;;;23.70;45.30;;;;;;5000482;28;20057;-58
2023/05/05 06:47:21;;;;;;;3.63;2.65;;;23.70;45.20;;;;;;4998210;28;20050;-58
2023/05/05 06:49:49;;;;;;;3.60;2.58;;;23.70;45.10;;;;;;4999763;28;20506;-58
2023/05/05 06:52:16;;;;;;;6.05;2.45;;;23.80;45.10;;;;;;5002008;28;20053;-56
2023/05/05 06:54:43;;;;;;;5.68;2.72;;;23.80;45.00;;;;;;5000828;28;20157;-55
2023/05/05 06:57:10;;;;;;;2.97;2.20;;;23.80;45.00;;;;;;5000175;28;20057;-56
2023/05/05 06:59:37;;;;;;;4.20;3.40;;;23.90;44.90;;;;;;4998459;28;20133;-58
2023/05/05 07:02:05;;;;;;;6.22;2.83;;;23.90;44.90;;;;;;4999358;28;20069;-57
2023/05/05 07:04:32;;;;;;;5.25;3.38;;;23.90;44.80;;;;;;5002042;28;20042;-57
2023/05/05 07:07:00;;;;;;;4.45;2.47;;;23.90;44.80;;;;;;5000519;28;20054;-58
2023/05/05 07:09:27;;;;;;;4.15;2.97;;;23.90;44.60;;;;;;4998214;28;20047;-58
2023/05/05 07:11:55;;;;;;;5.00;2.75;;;24.00;44.60;;;;;;5001535;28;20038;-57
2023/05/05 07:14:22;;;;;;;3.42;2.55;;;24.00;44.50;;;;;;4999791;28;20052;-58
2023/05/05 07:16:50;;;;;;;5.22;2.42;;;24.00;44.40;;;;;;4994550;28;20050;-57
2023/05/05 07:19:17;;;;;;;3.10;2.80;;;24.00;44.30;;;;;;5000660;28;20426;-57
2023/05/05 07:21:46;;;;;;;4.88;2.13;;;24.10;44.20;;;;;;4997646;28;21838;-57
2023/05/05 07:24:13;;;;;;;3.20;2.50;;;24.10;44.20;;;;;;4995865;28;20081;-57
2023/05/05 07:26:40;;;;;;;3.22;2.92;;;24.10;44.10;;;;;;5000828;28;20124;-55
2023/05/05 07:29:07;;;;;;;2.60;2.40;;;24.10;44.10;;;;;;5003334;28;20049;-57
2023/05/05 07:31:34;;;;;;;3.13;2.50;;;24.10;44.10;;;;;;4999399;28;20723;-58
2023/05/05 07:34:02;;;;;;;6.85;2.80;;;24.20;44.20;;;;;;4999563;28;20057;-58
2023/05/05 07:36:30;;;;;;;4.03;2.90;;;24.20;44.30;;;;;;5000849;28;20080;-57
2023/05/05 07:38:59;;;;;;;3.38;2.33;;;24.20;44.30;;;;;;5001766;28;20568;-58
2023/05/05 07:41:26;;;;;;;4.07;2.65;;;24.30;44.20;;;;;;5000436;28;21393;-58
2023/05/05 07:43:53;;;;;;;4.38;2.67;;;24.30;44.20;;;;;;5000897;28;20046;-57
2023/05/05 07:46:21;;;;;;;2.63;2.40;;;24.30;44.20;;;;;;4999397;28;20046;-55
2023/05/05 07:48:58;;;;;;;2.65;2.35;;;24.30;44.20;;;;;;4997041;28;20050;-57
2023/05/05 07:51:26;;;;;;;2.50;2.28;;;24.40;44.30;;;;;;5004005;28;20049;-57
2023/05/05 07:53:54;;;;;;;2.78;2.55;;;24.40;44.20;;;;;;5004642;28;20050;-56
2023/05/05 07:56:23;;;;;;;2.53;2.30;;;24.40;44.10;;;;;;5001409;28;20058;-57
2023/05/05 07:58:50;;;;;;;5.32;2.45;;;24.40;44.10;;;;;;4999173;28;20050;-57
2023/05/05 08:01:18;;;;;;;3.90;3.22;;;24.50;44.10;;;;;;5002567;28;20124;-56
2023/05/05 08:03:45;;;;;;;4.75;2.53;;;24.50;44.10;;;;;;4999828;28;20054;-58
2023/05/05 08:06:20;;;;;;;4.38;2.65;;;24.50;44.00;;;;;;5001728;28;20573;-58
2023/05/05 08:08:48;;;;;;;2.63;2.40;;;24.50;43.90;;;;;;5004388;28;20053;-57
2023/05/05 08:11:16;;;;;;;2.45;2.20;;;24.50;43.80;;;;;;5002702;28;20101;-60
2023/05/05 08:13:43;;;;;;;4.80;2.50;;;24.60;43.80;;;;;;5002571;28;20042;-58
2023/05/05 08:16:11;;;;;;;7.18;2.30;;;24.60;43.70;;;;;;5003522;28;20054;-58
2023/05/05 08:18:39;;;;;;;3.83;2.20;;;24.60;43.50;;;;;;5002534;28;20058;-58
2023/05/05 08:21:08;;;;;;;2.78;2.55;;;24.70;43.50;;;;;;5002398;28;20058;-59
2023/05/05 08:23:35;;;;;;;9.68;2.78;;;24.70;43.30;;;;;;5013551;28;20076;-58
2023/05/05 08:26:08;;;;;;;3.38;3.05;;;24.70;43.30;;;;;;5003073;28;20077;-58
2023/05/05 08:28:35;;;;;;;7.20;2.88;;;24.70;43.20;;;;;;5003006;28;20062;-58
2023/05/05 08:31:04;;;;;;;3.80;2.17;;;24.80;43.10;;;;;;5006091;28;20053;-58
2023/05/05 08:33:31;;;;;;;2.67;2.38;;;24.80;43.00;;;;;;5006961;28;20147;-58
2023/05/05 08:35:59;;;;;;;2.33;2.13;;;24.80;42.80;;;;;;5003530;28;20088;-59
2023/05/05 08:38:26;;;;;;;3.38;2.22;;;24.80;42.80;;;;;;5003704;28;20042;-58
2023/05/05 08:40:54;;;;;;;5.47;3.03;;;24.80;42.80;;;;;;5000859;28;20477;-58
2023/05/05 08:43:22;;;;;;;2.97;2.40;;;24.80;42.70;;;;;;5003937;28;20506;-59
2023/05/05 08:45:50;;;;;;;2.70;2.28;;;24.90;42.80;;;;;;5001192;28;20078;-59
2023/05/05 08:48:19;;;;;;;2.53;2.22;;;24.90;42.70;;;;;;5002305;28;20061;-57
2023/05/05 08:50:53;;;;;;;4.10;2.50;;;24.90;42.70;;;;;;5001977;28;20148;-58
2023/05/05 08:53:49;;;;;;;2.55;2.35;;;24.90;42.70;;;;;;5001341;28;20065;-59
2023/05/05 08:56:18;;;;;;;3.08;2.35;;;24.90;42.60;;;;;;5004145;28;20112;-58
2023/05/05 08:58:47;;;;;;;3.78;2.08;;;25.00;42.60;;;;;;4998036;28;20108;-58
2023/05/05 09:01:15;;;;;;;4.68;2.08;;;24.90;42.50;;;;;;5003666;28;20119;-58
2023/05/05 09:03:43;;;;;;;4.72;2.47;;;25.00;42.40;;;;;;5000917;28;20057;-60
2023/05/05 09:06:11;;;;;;;2.92;2.40;;;25.00;42.30;;;;;;5004531;28;20050;-58
2023/05/05 09:08:38;;;;;;;2.75;2.53;;;25.00;42.30;;;;;;5002672;28;20060;-58
2023/05/05 09:11:05;;;;;;;4.70;2.50;;;25.00;42.30;;;;;;5003527;28;20060;-58
2023/05/05 09:13:33;;;;;;;5.35;2.58;;;25.00;42.20;;;;;;5003936;28;20054;-59
2023/05/05 09:16:00;;;;;;;2.75;2.30;;;25.00;42.40;;;;;;5001085;28;20049;-59
2023/05/05 09:18:28;;;;;;;4.78;2.20;;;25.00;42.40;;;;;;5002800;28;20526;-59
2023/05/05 09:20:55;;;;;;;3.42;2.50;;;25.00;42.50;;;;;;5002366;28;20046;-59
2023/05/05 09:23:25;;;;;;;3.78;2.10;;;25.00;42.40;;;;;;4999739;28;20077;-59
2023/05/05 09:26:04;;;;;;;4.47;2.30;;;25.00;42.30;;;;;;5001811;28;20137;-60
2023/05/05 09:28:31;;;;;;;3.42;2.80;;;25.00;42.20;;;;;;5002849;28;20072;-60
2023/05/05 09:31:14;;;;;;;4.78;2.45;;;25.00;42.20;;;;;;4998226;28;20054;-60
2023/05/05 09:33:42;;;;;;;2.58;2.20;;;25.00;42.10;;;;;;5003214;28;20053;-61
2023/05/05 09:36:11;;;;;;;2.47;2.28;;;25.00;42.10;;;;;;5003257;28;20060;-59
2023/05/05 09:38:38;;;;;;;3.03;2.00;;;25.00;42.00;;;;;;5004179;28;20089;-58
2023/05/05 09:41:05;;;;;;;2.78;2.58;;;25.00;41.90;;;;;;5002430;28;20069;-60
2023/05/05 09:43:50;;;;;;;2.90;2.28;;;25.10;41.90;;;;;;5001795;28;20064;-60
2023/05/05 09:46:18;;;;;;;3.90;2.35;;;25.10;41.90;;;;;;5003149;28;20053;-60
2023/05/05 09:48:46;;;;;;;3.03;2.45;;;25.10;41.90;;;;;;5002991;28;20112;-59
2023/05/05 09:51:13;;;;;;;3.22;2.67;;;25.10;41.90;;;;;;5002589;28;20046;-60
2023/05/05 09:53:41;;;;;;;3.17;2.67;;;25.10;41.90;;;;;;5001883;28;20058;-59
2023/05/05 09:56:09;;;;;;;3.42;2.45;;;25.10;41.90;;;;;;5001249;28;20048;-60
2023/05/05 09:58:37;;;;;;;2.75;2.22;;;25.10;41.80;;;;;;5000231;28;20703;-60
2023/05/05 10:01:04;;;;;;;2.83;2.25;;;25.10;41.90;;;;;;5001709;28;20128;-60
2023/05/05 10:03:31;;;;;;;3.90;2.50;;;25.10;41.90;;;;;;5005017;28;20081;-58
2023/05/05 10:05:59;;;;;;;6.93;2.63;;;25.10;41.90;;;;;;5002828;28;20060;-58
2023/05/05 10:08:30;;;;;;;3.67;2.67;;;25.10;42.00;;;;;;5003663;28;20042;-60
2023/05/05 10:10:59;;;;;;;8.23;2.45;;;25.10;41.90;;;;;;5001287;28;20050;-59
2023/05/05 10:13:27;;;;;;;11.85;3.42;;;25.10;41.80;;;;;;5002338;28;20453;-60
2023/05/05 10:15:56;;;;;;;4.00;2.83;;;25.20;41.90;;;;;;5004449;28;20141;-61
2023/05/05 10:18:26;;;;;;;7.05;2.83;;;25.20;41.80;;;;;;5004073;28;20042;-59
2023/05/05 10:20:58;;;;;;;3.03;1.92;;;25.20;41.70;;;;;;5003691;28;20053;-59
2023/05/05 10:23:52;;;;;;;4.13;2.42;;;25.20;41.60;;;;;;5001214;28;20050;-58
2023/05/05 10:26:22;;;;;;;9.35;2.88;;;25.20;41.60;;;;;;5001073;28;20080;-59
2023/05/05 10:28:54;;;;;;;7.80;2.95;;;25.20;41.70;;;;;;5000479;28;20073;-59
2023/05/05 10:31:35;;;;;;;6.43;3.03;;;25.20;41.70;;;;;;5003337;28;20375;-59
2023/05/05 10:34:07;;;;;;;13.10;3.45;;;25.20;41.70;;;;;;5001056;28;20402;-59
2023/05/05 10:36:37;;;;;;;11.48;3.55;;;25.20;41.70;;;;;;5001749;28;20104;-59
2023/05/05 10:39:09;;;;;;;10.82;3.22;;;25.20;41.70;;;;;;4999608;28;20053;-59
2023/05/05 10:41:37;;;;;;;10.13;3.20;;;25.20;41.70;;;;;;5001802;28;20073;-59
2023/05/05 10:44:05;;;;;;;8.13;3.25;;;25.30;41.80;;;;;;4998563;28;20062;-59
2023/05/05 10:46:32;;;;;;;9.25;3.17;;;25.30;41.70;;;;;;4999179;28;20045;-59
2023/05/05 10:49:16;;;;;;;8.52;2.63;;;25.30;41.60;;;;;;4997038;28;20060;-59
2023/05/05 10:52:03;;;;;;;14.13;3.50;;;25.30;41.70;;;;;;4997805;28;20061;-60
2023/05/05 10:55:01;;;;;;;10.93;3.53;;;25.30;41.50;;;;;;4992278;28;20050;-58
2023/05/05 10:57:31;;;;;;;9.00;3.38;;;25.40;41.40;;;;;;4998362;28;20410;-59
2023/05/05 10:59:58;;;;;;;6.35;3.15;;;25.30;41.30;;;;;;5000186;28;20069;-59
2023/05/05 11:02:28;;;;;;;6.38;3.05;;;25.40;41.40;;;;;;4999475;28;20413;-58
2023/05/05 11:05:22;;;;;;;11.85;4.20;;;25.40;41.40;;;;;;5000047;28;20691;-58
2023/05/05 11:07:50;;;;;;;6.20;3.72;;;25.40;41.30;;;;;;4997468;28;20388;-58
2023/05/05 11:10:19;;;;;;;5.40;2.92;;;25.40;41.30;;;;;;5000902;28;20132;-58
2023/05/05 11:13:19;;;;;;;6.10;3.57;;;25.40;41.20;;;;;;5000487;28;20046;-59
2023/05/05 11:15:48;;;;;;;7.60;3.47;;;25.50;41.30;;;;;;4999604;28;20299;-58
2023/05/05 11:18:37;;;;;;;5.57;2.72;;;25.50;41.40;;;;;;5001033;28;20050;-58
2023/05/05 11:21:16;;;;;;;3.80;2.88;;;25.50;41.20;;;;;;4995430;28;20046;-57
2023/05/05 11:23:51;;;;;;;4.23;2.70;;;25.50;41.10;;;;;;5005581;28;20052;-60
2023/05/05 11:26:49;;;;;;;3.72;2.47;;;25.60;41.40;;;;;;5004856;28;20490;-59
2023/05/05 11:29:16;;;;;;;5.50;2.90;;;25.60;41.20;;;;;;5002900;28;20057;-59
2023/05/05 11:31:46;;;;;;;6.65;3.25;;;25.60;41.00;;;;;;5004872;28;20421;-58
2023/05/05 11:34:28;;;;;;;6.47;3.30;;;25.60;41.00;;;;;;5003509;28;20104;-60
2023/05/05 11:36:59;;;;;;;6.30;2.88;;;25.60;40.90;;;;;;5006305;28;20101;-58
2023/05/05 11:39:39;;;;;;;3.53;3.00;;;25.60;41.00;;;;;;5002817;28;20054;-57
2023/05/05 11:42:25;;;;;;;3.08;2.88;;;25.60;40.90;;;;;;5008468;28;20084;-57
2023/05/05 11:44:54;;;;;;;4.75;3.35;;;25.60;40.90;;;;;;5001897;28;20056;-64
2023/05/05 11:47:26;;;;;;;3.38;2.42;;;25.60;40.90;;;;;;5006550;28;20073;-58
2023/05/05 11:49:54;;;;;;;3.42;3.08;;;25.70;40.90;;;;;;5002717;28;20058;-57
2023/05/05 11:52:24;;;;;;;5.18;3.20;;;25.60;40.80;;;;;;5003488;28;20128;-57
2023/05/05 11:54:51;;;;;;;3.45;2.90;;;25.70;40.80;;;;;;5003694;28;20138;-61
2023/05/05 11:57:26;;;;;;;3.53;2.53;;;25.60;40.90;;;;;;5002142;28;20049;-61
2023/05/05 11:59:59;;;;;;;3.72;2.65;;;25.60;40.90;;;;;;5002092;28;20054;-62
2023/05/05 12:02:28;;;;;;;3.42;2.58;;;25.60;40.80;;;;;;5004041;28;20047;-59
2023/05/05 12:04:58;;;;;;;3.03;2.83;;;25.60;40.80;;;;;;5004028;28;20407;-59
2023/05/05 12:07:28;;;;;;;2.90;2.70;;;25.60;40.80;;;;;;5006093;28;20406;-63
2023/05/05 12:09:56;;;;;;;2.80;2.58;;;25.60;40.80;;;;;;5002590;28;20050;-61
2023/05/05 12:12:35;;;;;;;4.30;2.78;;;25.70;40.80;;;;;;4986417;28;20131;-59
2023/05/05 12:15:03;;;;;;;3.00;2.80;;;25.70;40.70;;;;;;4999344;28;20421;-61
2023/05/05 12:17:41;;;;;;;3.10;2.80;;;25.70;40.60;;;;;;5002061;28;20125;-61
2023/05/05 12:20:09;;;;;;;3.05;2.42;;;25.70;40.50;;;;;;5004432;28;20562;-59
2023/05/05 12:22:38;;;;;;;3.55;2.40;;;25.70;40.50;;;;;;5002539;28;20504;-60
2023/05/05 12:25:07;;;;;;;4.45;2.80;;;25.70;40.40;;;;;;5004455;28;20041;-60
2023/05/05 12:27:34;;;;;;;3.58;2.60;;;25.70;40.40;;;;;;5002507;28;20046;-62
2023/05/05 12:30:13;;;;;;;2.42;2.22;;;25.60;40.30;;;;;;5003586;28;20060;-59
2023/05/05 12:32:41;;;;;;;2.80;2.60;;;25.70;40.20;;;;;;5003852;28;20062;-61
2023/05/05 12:35:09;;;;;;;4.45;2.85;;;25.70;40.20;;;;;;5002128;28;20448;-58
2023/05/05 12:37:37;;;;;;;4.43;2.60;;;25.70;40.20;;;;;;5004542;28;20522;-58
2023/05/05 12:40:05;;;;;;;3.78;2.88;;;25.70;40.30;;;;;;5001722;28;20049;-58
2023/05/05 12:42:40;;;;;;;3.13;2.70;;;25.70;40.30;;;;;;5002585;28;20054;-58
2023/05/05 12:45:16;;;;;;;2.10;2.00;;;25.70;40.30;;;;;;5003305;28;20058;-59
2023/05/05 12:47:43;;;;;;;3.15;2.33;;;25.70;40.20;;;;;;5004154;28;20045;-62
2023/05/05 12:50:11;;;;;;;2.83;2.10;;;25.70;40.30;;;;;;5002869;28;20132;-59
2023/05/05 12:52:44;;;;;;;2.50;2.30;;;25.70;40.30;;;;;;5003943;28;20046;-59
2023/05/05 12:55:12;;;;;;;3.72;2.65;;;25.70;40.30;;;;;;5005265;28;20380;-59
2023/05/05 12:58:00;;;;;;;3.38;2.40;;;25.70;40.20;;;;;;5004458;28;20503;-59
2023/05/05 13:00:28;;;;;;;3.55;2.53;;;25.80;40.20;;;;;;5002612;28;20042;-59
2023/05/05 13:02:55;;;;;;;2.95;2.20;;;25.80;40.20;;;;;;5002851;28;20046;-59
2023/05/05 13:05:35;;;;;;;2.10;1.90;;;25.70;40.00;;;;;;5002666;28;20566;-59